sensor_id;sensor_type;location;lat;lon;timestamp;pressure;altitude;pressure_sealevel;temperature;humidity
20455;BME280;10386;54.314;10.022;2024-01-27T00:02:06;103095.84;;;5.73;100.00
20455;BME280;10386;54.314;10.022;2024-01-27T00:04:35;103087.72;;;5.76;100.00
20455;BME280;10386;54.314;10.022;2024-01-27T00:07:03;103092.25;;;5.75;100.00
20455;BME280;10386;54.314;10.022;2024-01-27T00:09:31;103092.19;;;5.77;100.00
20455;BME280;10386;54.314;10.022;2024-01-27T00:11:58;103104.91;;;5.70;100.00
20455;BME280;10386;54.314;10.022;2024-01-27T00:14:24;103099.47;;;5.73;100.00
20455;BME280;10386;54.314;10.022;2024-01-27T00:16:51;103090.59;;;5.65;100.00
20455;BME280;10386;54.314;10.022;2024-01-27T00:19:18;103106.72;;;5.68;100.00
20455;BME280;10386;54.314;10.022;2024-01-27T00:21:45;103105.78;;;5.71;100.00
20455;BME280;10386;54.314;10.022;2024-01-27T00:24:13;103105.81;;;5.68;100.00
20455;BME280;10386;54.314;10.022;2024-01-27T00:26:40;103118.47;;;5.63;100.00
20455;BME280;10386;54.314;10.022;2024-01-27T00:29:07;103114.78;;;5.70;100.00
20455;BME280;10386;54.314;10.022;2024-01-27T00:31:34;103113.09;;;5.63;100.00
20455;BME280;10386;54.314;10.022;2024-01-27T00:34:01;103111.44;;;5.53;100.00
20455;BME280;10386;54.314;10.022;2024-01-27T00:36:29;103110.66;;;5.43;100.00
20455;BME280;10386;54.314;10.022;2024-01-27T00:38:56;103113.34;;;5.45;100.00
20455;BME280;10386;54.314;10.022;2024-01-27T00:41:23;103108.88;;;5.42;100.00
20455;BME280;10386;54.314;10.022;2024-01-27T00:43:50;103110.66;;;5.45;100.00
20455;BME280;10386;54.314;10.022;2024-01-27T00:46:17;103101.66;;;5.44;100.00
20455;BME280;10386;54.314;10.022;2024-01-27T00:48:44;103112.53;;;5.38;100.00
20455;BME280;10386;54.314;10.022;2024-01-27T00:51:11;103115.19;;;5.43;100.00
20455;BME280;10386;54.314;10.022;2024-01-27T00:53:39;103106.13;;;5.47;100.00
20455;BME280;10386;54.314;10.022;2024-01-27T00:56:06;103108.78;;;5.48;100.00
20455;BME280;10386;54.314;10.022;2024-01-27T00:58:33;103104.31;;;5.49;100.00
20455;BME280;10386;54.314;10.022;2024-01-27T01:01:01;103107.06;;;5.46;100.00
20455;BME280;10386;54.314;10.022;2024-01-27T01:03:28;103105.19;;;5.49;100.00
20455;BME280;10386;54.314;10.022;2024-01-27T01:05:55;103116.81;;;5.53;100.00
20455;BME280;10386;54.314;10.022;2024-01-27T01:08:22;103114.09;;;5.56;100.00
20455;BME280;10386;54.314;10.022;2024-01-27T01:10:49;103114.91;;;5.62;100.00
20455;BME280;10386;54.314;10.022;2024-01-27T01:13:16;103108.56;;;5.66;100.00
20455;BME280;10386;54.314;10.022;2024-01-27T01:15:43;103112.16;;;5.64;100.00
20455;BME280;10386;54.314;10.022;2024-01-27T01:18:10;103125.78;;;5.55;100.00
20455;BME280;10386;54.314;10.022;2024-01-27T01:20:37;103122.13;;;5.60;100.00
20455;BME280;10386;54.314;10.022;2024-01-27T01:23:03;103125.63;;;5.65;100.00
20455;BME280;10386;54.314;10.022;2024-01-27T01:25:30;103118.41;;;5.66;100.00
20455;BME280;10386;54.314;10.022;2024-01-27T01:27:57;103121.03;;;5.72;100.00
20455;BME280;10386;54.314;10.022;2024-01-27T01:30:24;103117.47;;;5.71;100.00
20455;BME280;10386;54.314;10.022;2024-01-27T01:32:51;103125.56;;;5.70;100.00
20455;BME280;10386;54.314;10.022;2024-01-27T01:35:18;103134.44;;;5.75;100.00
20455;BME280;10386;54.314;10.022;2024-01-27T01:37:45;103120.97;;;5.76;100.00
20455;BME280;10386;54.314;10.022;2024-01-27T01:40:14;103119.19;;;5.78;100.00
20455;BME280;10386;54.314;10.022;2024-01-27T01:42:42;103123.66;;;5.79;100.00
20455;BME280;10386;54.314;10.022;2024-01-27T01:45:10;103122.75;;;5.80;100.00
20455;BME280;10386;54.314;10.022;2024-01-27T01:47:39;103125.34;;;5.85;100.00
20455;BME280;10386;54.314;10.022;2024-01-27T01:50:08;103120.91;;;5.82;100.00
20455;BME280;10386;54.314;10.022;2024-01-27T01:52:35;103133.53;;;5.77;100.00
20455;BME280;10386;54.314;10.022;2024-01-27T01:55:03;103140.75;;;5.74;100.00
20455;BME280;10386;54.314;10.022;2024-01-27T01:57:33;103135.38;;;5.74;100.00
20455;BME280;10386;54.314;10.022;2024-01-27T02:00:00;103137.13;;;5.78;100.00
20455;BME280;10386;54.314;10.022;2024-01-27T02:02:27;103127.25;;;5.78;100.00
20455;BME280;10386;54.314;10.022;2024-01-27T02:04:53;103121.88;;;5.75;100.00
20455;BME280;10386;54.314;10.022;2024-01-27T02:07:20;103125.44;;;5.79;100.00
20455;BME280;10386;54.314;10.022;2024-01-27T02:09:47;103128.09;;;5.82;100.00
20455;BME280;10386;54.314;10.022;2024-01-27T02:12:14;103137.81;;;5.92;100.00
20455;BME280;10386;54.314;10.022;2024-01-27T02:14:41;103137.84;;;5.90;100.00
20455;BME280;10386;54.314;10.022;2024-01-27T02:17:09;103135.09;;;5.93;100.00
20455;BME280;10386;54.314;10.022;2024-01-27T02:19:36;103139.59;;;5.94;100.00
20455;BME280;10386;54.314;10.022;2024-01-27T02:22:03;103140.50;;;5.93;100.00
20455;BME280;10386;54.314;10.022;2024-01-27T02:24:30;103134.13;;;5.99;100.00
20455;BME280;10386;54.314;10.022;2024-01-27T02:26:57;103146.75;;;5.97;100.00
20455;BME280;10386;54.314;10.022;2024-01-27T02:29:24;103137.69;;;6.01;100.00
20455;BME280;10386;54.314;10.022;2024-01-27T02:31:52;103142.22;;;5.97;100.00
20455;BME280;10386;54.314;10.022;2024-01-27T02:34:20;103147.56;;;6.00;100.00
20455;BME280;10386;54.314;10.022;2024-01-27T02:36:47;103146.56;;;6.07;100.00
20455;BME280;10386;54.314;10.022;2024-01-27T02:39:15;103145.69;;;6.05;100.00
20455;BME280;10386;54.314;10.022;2024-01-27T02:41:41;103145.75;;;6.04;100.00
20455;BME280;10386;54.314;10.022;2024-01-27T02:44:08;103153.75;;;6.08;100.00
20455;BME280;10386;54.314;10.022;2024-01-27T02:46:35;103158.16;;;6.14;100.00
20455;BME280;10386;54.314;10.022;2024-01-27T02:49:02;103153.69;;;6.13;100.00
20455;BME280;10386;54.314;10.022;2024-01-27T02:51:30;103150.97;;;6.13;100.00
20455;BME280;10386;54.314;10.022;2024-01-27T02:53:57;103161.75;;;6.13;100.00
20455;BME280;10386;54.314;10.022;2024-01-27T02:56:24;103165.34;;;6.13;100.00
20455;BME280;10386;54.314;10.022;2024-01-27T02:58:51;103159.06;;;6.13;100.00
20455;BME280;10386;54.314;10.022;2024-01-27T03:01:19;103159.94;;;6.13;100.00
20455;BME280;10386;54.314;10.022;2024-01-27T03:03:46;103149.06;;;6.19;100.00
20455;BME280;10386;54.314;10.022;2024-01-27T03:06:13;103156.28;;;6.19;100.00
20455;BME280;10386;54.314;10.022;2024-01-27T03:08:40;103154.44;;;6.19;100.00
20455;BME280;10386;54.314;10.022;2024-01-27T03:11:07;103150.78;;;6.25;100.00
20455;BME280;10386;54.314;10.022;2024-01-27T03:13:33;103163.31;;;6.27;100.00
20455;BME280;10386;54.314;10.022;2024-01-27T03:16:00;103166.00;;;6.27;100.00
20455;BME280;10386;54.314;10.022;2024-01-27T03:18:27;103167.94;;;6.21;100.00
20455;BME280;10386;54.314;10.022;2024-01-27T03:20:54;103169.75;;;6.19;100.00
20455;BME280;10386;54.314;10.022;2024-01-27T03:23:21;103162.38;;;6.30;100.00
20455;BME280;10386;54.314;10.022;2024-01-27T03:25:48;103153.47;;;6.25;100.00
20455;BME280;10386;54.314;10.022;2024-01-27T03:28:15;103156.13;;;6.28;100.00
20455;BME280;10386;54.314;10.022;2024-01-27T03:30:42;103158.81;;;6.28;100.00
20455;BME280;10386;54.314;10.022;2024-01-27T03:33:11;103156.06;;;6.31;100.00
20455;BME280;10386;54.314;10.022;2024-01-27T03:35:39;103158.78;;;6.29;100.00
20455;BME280;10386;54.314;10.022;2024-01-27T03:38:06;103153.41;;;6.28;100.00
20455;BME280;10386;54.314;10.022;2024-01-27T03:40:33;103157.00;;;6.28;100.00
20455;BME280;10386;54.314;10.022;2024-01-27T03:43:00;103165.06;;;6.30;100.00
20455;BME280;10386;54.314;10.022;2024-01-27T03:45:26;103165.06;;;6.30;100.00
20455;BME280;10386;54.314;10.022;2024-01-27T03:47:53;103170.44;;;6.31;100.00
20455;BME280;10386;54.314;10.022;2024-01-27T03:50:21;103174.09;;;6.27;100.00
20455;BME280;10386;54.314;10.022;2024-01-27T03:52:48;103186.75;;;6.24;100.00
20455;BME280;10386;54.314;10.022;2024-01-27T03:55:15;103184.97;;;6.21;100.00
20455;BME280;10386;54.314;10.022;2024-01-27T03:57:41;103187.72;;;6.20;100.00
20455;BME280;10386;54.314;10.022;2024-01-27T04:00:09;103194.94;;;6.16;100.00
20455;BME280;10386;54.314;10.022;2024-01-27T04:02:37;103194.03;;;6.17;100.00
20455;BME280;10386;54.314;10.022;2024-01-27T04:05:04;103187.78;;;6.15;100.00
20455;BME280;10386;54.314;10.022;2024-01-27T04:07:31;103206.78;;;6.08;100.00
20455;BME280;10386;54.314;10.022;2024-01-27T04:09:58;103206.84;;;6.05;100.00
20455;BME280;10386;54.314;10.022;2024-01-27T04:12:25;103206.84;;;6.05;100.00
20455;BME280;10386;54.314;10.022;2024-01-27T04:14:52;103205.13;;;5.99;100.00
20455;BME280;10386;54.314;10.022;2024-01-27T04:17:18;103217.03;;;5.83;100.00
20455;BME280;10386;54.314;10.022;2024-01-27T04:19:45;103211.56;;;5.89;100.00
20455;BME280;10386;54.314;10.022;2024-01-27T04:22:12;103211.69;;;5.80;100.00
20455;BME280;10386;54.314;10.022;2024-01-27T04:24:39;103206.25;;;5.82;100.00
20455;BME280;10386;54.314;10.022;2024-01-27T04:27:05;103208.13;;;5.78;100.00
20455;BME280;10386;54.314;10.022;2024-01-27T04:29:33;103212.59;;;5.76;100.00
20455;BME280;10386;54.314;10.022;2024-01-27T04:31:59;103216.19;;;5.77;100.00
20455;BME280;10386;54.314;10.022;2024-01-27T04:34:27;103228.06;;;5.62;100.00
20455;BME280;10386;54.314;10.022;2024-01-27T04:36:54;103235.22;;;5.66;100.00
20455;BME280;10386;54.314;10.022;2024-01-27T04:39:21;103227.13;;;5.66;100.00
20455;BME280;10386;54.314;10.022;2024-01-27T04:41:48;103220.78;;;5.70;100.00
20455;BME280;10386;54.314;10.022;2024-01-27T04:44:14;103221.72;;;5.66;100.00
20455;BME280;10386;54.314;10.022;2024-01-27T04:46:41;103228.06;;;5.62;100.00
20455;BME280;10386;54.314;10.022;2024-01-27T04:49:09;103226.16;;;5.69;100.00
20455;BME280;10386;54.314;10.022;2024-01-27T04:51:35;103219.81;;;5.74;100.00
20455;BME280;10386;54.314;10.022;2024-01-27T04:54:02;103217.13;;;5.73;100.00
20455;BME280;10386;54.314;10.022;2024-01-27T04:56:29;103224.25;;;5.77;100.00
20455;BME280;10386;54.314;10.022;2024-01-27T04:58:56;103225.16;;;5.77;100.00
20455;BME280;10386;54.314;10.022;2024-01-27T05:01:23;103219.72;;;5.83;100.00
20455;BME280;10386;54.314;10.022;2024-01-27T05:03:51;103228.78;;;5.79;100.00
20455;BME280;10386;54.314;10.022;2024-01-27T05:06:18;103228.78;;;5.75;100.00
20455;BME280;10386;54.314;10.022;2024-01-27T05:08:45;103225.25;;;5.71;100.00
20455;BME280;10386;54.314;10.022;2024-01-27T05:11:12;103234.22;;;5.72;100.00
20455;BME280;10386;54.314;10.022;2024-01-27T05:13:40;103233.25;;;5.76;100.00
20455;BME280;10386;54.314;10.022;2024-01-27T05:16:07;103251.25;;;5.74;100.00
20455;BME280;10386;54.314;10.022;2024-01-27T05:18:34;103241.38;;;5.74;100.00
20455;BME280;10386;54.314;10.022;2024-01-27T05:21:01;103239.59;;;5.72;100.00
20455;BME280;10386;54.314;10.022;2024-01-27T05:23:29;103241.44;;;5.71;100.00
20455;BME280;10386;54.314;10.022;2024-01-27T05:25:56;103237.00;;;5.66;100.00
20455;BME280;10386;54.314;10.022;2024-01-27T05:28:23;103245.06;;;5.66;100.00
20455;BME280;10386;54.314;10.022;2024-01-27T05:30:50;103243.28;;;5.65;100.00
20455;BME280;10386;54.314;10.022;2024-01-27T05:33:17;103246.91;;;5.64;100.00
20455;BME280;10386;54.314;10.022;2024-01-27T05:35:44;103259.53;;;5.60;100.00
20455;BME280;10386;54.314;10.022;2024-01-27T05:38:11;103257.78;;;5.56;100.00
20455;BME280;10386;54.314;10.022;2024-01-27T05:40:38;103263.16;;;5.58;100.00
20455;BME280;10386;54.314;10.022;2024-01-27T05:43:07;103258.63;;;5.60;100.00
20455;BME280;10386;54.314;10.022;2024-01-27T05:45:34;103262.16;;;5.66;100.00
20455;BME280;10386;54.314;10.022;2024-01-27T05:48:01;103267.44;;;5.74;100.00
20455;BME280;10386;54.314;10.022;2024-01-27T05:50:29;103266.56;;;5.72;100.00
20455;BME280;10386;54.314;10.022;2024-01-27T05:52:58;103274.59;;;5.75;100.00
20455;BME280;10386;54.314;10.022;2024-01-27T05:55:25;103260.22;;;5.79;100.00
20455;BME280;10386;54.314;10.022;2024-01-27T05:57:52;103262.91;;;5.77;100.00
20455;BME280;10386;54.314;10.022;2024-01-27T06:00:18;103262.03;;;5.75;100.00
20455;BME280;10386;54.314;10.022;2024-01-27T06:02:45;103258.44;;;5.76;100.00
20455;BME280;10386;54.314;10.022;2024-01-27T06:05:12;103251.22;;;5.81;100.00
20455;BME280;10386;54.314;10.022;2024-01-27T06:07:40;103265.59;;;5.79;100.00
20455;BME280;10386;54.314;10.022;2024-01-27T06:10:08;103259.34;;;5.78;100.00
20455;BME280;10386;54.314;10.022;2024-01-27T06:12:37;103272.78;;;5.80;100.00
20455;BME280;10386;54.314;10.022;2024-01-27T06:15:04;103275.47;;;5.80;100.00
20455;BME280;10386;54.314;10.022;2024-01-27T06:17:32;103280.91;;;5.74;100.00
20455;BME280;10386;54.314;10.022;2024-01-27T06:19:59;103285.38;;;5.78;100.00
20455;BME280;10386;54.314;10.022;2024-01-27T06:22:27;103290.81;;;5.72;100.00
20455;BME280;10386;54.314;10.022;2024-01-27T06:24:53;103289.00;;;5.74;100.00
20455;BME280;10386;54.314;10.022;2024-01-27T06:27:20;103280.97;;;5.69;100.00
20455;BME280;10386;54.314;10.022;2024-01-27T06:29:47;103285.47;;;5.69;100.00
20455;BME280;10386;54.314;10.022;2024-01-27T06:32:13;103280.91;;;5.75;100.00
20455;BME280;10386;54.314;10.022;2024-01-27T06:34:41;103286.34;;;5.71;100.00
20455;BME280;10386;54.314;10.022;2024-01-27T06:37:08;103292.56;;;5.77;100.00
20455;BME280;10386;54.314;10.022;2024-01-27T06:39:34;103290.81;;;5.73;100.00
20455;BME280;10386;54.314;10.022;2024-01-27T06:42:01;103288.94;;;5.77;100.00
20455;BME280;10386;54.314;10.022;2024-01-27T06:44:28;103302.53;;;5.68;100.00
20455;BME280;10386;54.314;10.022;2024-01-27T06:46:55;103313.34;;;5.65;100.00
20455;BME280;10386;54.314;10.022;2024-01-27T06:49:22;103317.91;;;5.61;100.00
20455;BME280;10386;54.314;10.022;2024-01-27T06:51:49;103304.50;;;5.55;100.00
20455;BME280;10386;54.314;10.022;2024-01-27T06:54:16;103304.59;;;5.48;100.00
20455;BME280;10386;54.314;10.022;2024-01-27T06:56:43;103308.22;;;5.42;100.00
20455;BME280;10386;54.314;10.022;2024-01-27T06:59:10;103313.69;;;5.38;100.00
20455;BME280;10386;54.314;10.022;2024-01-27T07:01:36;103315.53;;;5.33;100.00
20455;BME280;10386;54.314;10.022;2024-01-27T07:04:27;103320.94;;;5.29;100.00
20455;BME280;10386;54.314;10.022;2024-01-27T07:06:54;103323.75;;;5.18;100.00
20455;BME280;10386;54.314;10.022;2024-01-27T07:09:21;103432.34;;;5.19;100.00
20455;BME280;10386;54.314;10.022;2024-01-27T07:11:49;103432.38;;;5.16;100.00
20455;BME280;10386;54.314;10.022;2024-01-27T07:14:19;103444.16;;;5.03;100.00
20455;BME280;10386;54.314;10.022;2024-01-27T07:16:47;103446.00;;;4.93;100.00
20455;BME280;10386;54.314;10.022;2024-01-27T07:19:13;103437.03;;;4.91;100.00
20455;BME280;10386;54.314;10.022;2024-01-27T07:21:42;103443.25;;;4.99;100.00
20455;BME280;10386;54.314;10.022;2024-01-27T07:24:10;103447.78;;;4.94;100.00
20455;BME280;10386;54.314;10.022;2024-01-27T07:26:37;103447.81;;;4.88;100.00
20455;BME280;10386;54.314;10.022;2024-01-27T07:29:04;103452.28;;;4.92;100.00
20455;BME280;10386;54.314;10.022;2024-01-27T07:31:30;103452.25;;;4.95;100.00
20455;BME280;10386;54.314;10.022;2024-01-27T07:33:57;103450.44;;;4.99;100.00
20455;BME280;10386;54.314;10.022;2024-01-27T07:36:24;103462.16;;;4.95;100.00
20455;BME280;10386;54.314;10.022;2024-01-27T07:38:52;103468.44;;;4.92;100.00
20455;BME280;10386;54.314;10.022;2024-01-27T07:41:20;103473.84;;;4.91;100.00
20455;BME280;10386;54.314;10.022;2024-01-27T07:43:47;103469.34;;;4.91;100.00
20455;BME280;10386;54.314;10.022;2024-01-27T07:46:14;103473.78;;;5.00;100.00
20455;BME280;10386;54.314;10.022;2024-01-27T07:48:41;103472.88;;;5.01;100.00
20455;BME280;10386;54.314;10.022;2024-01-27T07:51:08;103475.53;;;5.05;100.00
20455;BME280;10386;54.314;10.022;2024-01-27T07:53:36;103474.63;;;5.06;100.00
20455;BME280;10386;54.314;10.022;2024-01-27T07:56:03;103460.25;;;5.09;100.00
20455;BME280;10386;54.314;10.022;2024-01-27T07:58:33;103470.09;;;5.14;100.00
20455;BME280;10386;54.314;10.022;2024-01-27T08:01:00;103471.03;;;5.10;100.00
20455;BME280;10386;54.314;10.022;2024-01-27T08:03:27;103470.09;;;5.14;100.00
20455;BME280;10386;54.314;10.022;2024-01-27T08:05:54;103471.91;;;5.12;100.00
20455;BME280;10386;54.314;10.022;2024-01-27T08:08:22;103471.88;;;5.15;100.00
20455;BME280;10386;54.314;10.022;2024-01-27T08:10:49;103479.09;;;5.09;100.00
20455;BME280;10386;54.314;10.022;2024-01-27T08:13:16;103479.09;;;5.07;100.00
20455;BME280;10386;54.314;10.022;2024-01-27T08:15:42;103476.38;;;5.13;100.00
20455;BME280;10386;54.314;10.022;2024-01-27T08:18:09;103484.41;;;5.22;100.00
20455;BME280;10386;54.314;10.022;2024-01-27T08:20:36;103482.63;;;5.21;100.00
20455;BME280;10386;54.314;10.022;2024-01-27T08:23:03;103478.09;;;5.22;100.00
20455;BME280;10386;54.314;10.022;2024-01-27T08:25:33;103487.88;;;5.35;100.00
20455;BME280;10386;54.314;10.022;2024-01-27T08:27:59;103487.03;;;5.27;100.00
20455;BME280;10386;54.314;10.022;2024-01-27T08:30:26;103492.41;;;5.30;100.00
20455;BME280;10386;54.314;10.022;2024-01-27T08:32:53;103491.56;;;5.26;100.00
20455;BME280;10386;54.314;10.022;2024-01-27T08:35:20;103490.66;;;5.24;100.00
20455;BME280;10386;54.314;10.022;2024-01-27T08:37:47;103486.09;;;5.35;100.00
20455;BME280;10386;54.314;10.022;2024-01-27T08:40:14;103481.59;;;5.37;100.00
20455;BME280;10386;54.314;10.022;2024-01-27T08:42:41;103481.59;;;5.37;100.00
20455;BME280;10386;54.314;10.022;2024-01-27T08:45:08;103489.63;;;5.43;100.00
20455;BME280;10386;54.314;10.022;2024-01-27T08:47:35;103484.22;;;5.46;100.00
20455;BME280;10386;54.314;10.022;2024-01-27T08:50:03;103494.03;;;5.53;100.00
20455;BME280;10386;54.314;10.022;2024-01-27T08:52:31;103476.81;;;5.70;100.00
20455;BME280;10386;54.314;10.022;2024-01-27T08:55:01;103488.53;;;5.66;100.00
20455;BME280;10386;54.314;10.022;2024-01-27T08:57:27;103489.31;;;5.76;100.00
20455;BME280;10386;54.314;10.022;2024-01-27T08:59:54;103485.75;;;5.78;100.00
20455;BME280;10386;54.314;10.022;2024-01-27T09:02:21;103487.38;;;5.93;100.00
20455;BME280;10386;54.314;10.022;2024-01-27T09:04:48;103489.94;;;6.06;100.00
20455;BME280;10386;54.314;10.022;2024-01-27T09:07:15;103493.56;;;6.05;100.00
20455;BME280;10386;54.314;10.022;2024-01-27T09:09:43;103499.88;;;6.01;100.00
20455;BME280;10386;54.314;10.022;2024-01-27T09:12:10;103490.78;;;6.13;100.00
20455;BME280;10386;54.314;10.022;2024-01-27T09:14:37;103498.88;;;6.13;100.00
20455;BME280;10386;54.314;10.022;2024-01-27T09:17:04;103506.00;;;6.18;100.00
20455;BME280;10386;54.314;10.022;2024-01-27T09:19:31;103507.81;;;6.16;100.00
20455;BME280;10386;54.314;10.022;2024-01-27T09:21:58;103502.34;;;6.24;100.00
20455;BME280;10386;54.314;10.022;2024-01-27T09:24:24;103500.50;;;6.29;100.00
20455;BME280;10386;54.314;10.022;2024-01-27T09:26:51;103509.41;;;6.38;100.00
20455;BME280;10386;54.314;10.022;2024-01-27T09:29:18;103507.53;;;6.42;100.00
20455;BME280;10386;54.314;10.022;2024-01-27T09:31:46;103507.22;;;6.67;100.00
20455;BME280;10386;54.314;10.022;2024-01-27T09:34:13;103502.78;;;6.63;100.00
20455;BME280;10386;54.314;10.022;2024-01-27T09:36:40;103511.69;;;6.70;100.00
20455;BME280;10386;54.314;10.022;2024-01-27T09:39:07;103503.66;;;6.64;100.00
20455;BME280;10386;54.314;10.022;2024-01-27T09:41:35;103501.81;;;6.66;100.00
20455;BME280;10386;54.314;10.022;2024-01-27T09:44:02;103521.63;;;6.65;100.00
20455;BME280;10386;54.314;10.022;2024-01-27T09:46:30;103508.25;;;6.57;100.00
20455;BME280;10386;54.314;10.022;2024-01-27T09:48:58;103518.91;;;6.69;100.00
20455;BME280;10386;54.314;10.022;2024-01-27T09:51:25;103523.25;;;6.78;100.00
20455;BME280;10386;54.314;10.022;2024-01-27T09:53:52;103524.19;;;6.77;100.00
20455;BME280;10386;54.314;10.022;2024-01-27T09:56:20;103518.91;;;6.69;100.00
20455;BME280;10386;54.314;10.022;2024-01-27T09:58:49;103529.66;;;6.71;100.00
20455;BME280;10386;54.314;10.022;2024-01-27T10:01:17;103537.72;;;6.74;100.00
20455;BME280;10386;54.314;10.022;2024-01-27T10:03:46;103540.34;;;6.81;100.00
20455;BME280;10386;54.314;10.022;2024-01-27T10:06:13;103534.06;;;6.78;100.00
20455;BME280;10386;54.314;10.022;2024-01-27T10:08:45;103533.28;;;6.70;100.00
20455;BME280;10386;54.314;10.022;2024-01-27T10:11:20;103537.69;;;6.77;100.00
20455;BME280;10386;54.314;10.022;2024-01-27T10:13:56;103534.03;;;6.82;100.00
20455;BME280;10386;54.314;10.022;2024-01-27T10:16:26;103538.38;;;6.93;100.00
20455;BME280;10386;54.314;10.022;2024-01-27T10:19:03;103533.94;;;6.89;100.00
20455;BME280;10386;54.314;10.022;2024-01-27T10:21:35;103542.81;;;6.97;100.00
20455;BME280;10386;54.314;10.022;2024-01-27T10:24:02;103541.88;;;7.00;100.00
20455;BME280;10386;54.314;10.022;2024-01-27T10:26:32;103550.00;;;6.98;100.00
20455;BME280;10386;54.314;10.022;2024-01-27T10:29:00;103548.19;;;7.00;100.00
20455;BME280;10386;54.314;10.022;2024-01-27T10:31:33;103541.91;;;6.98;100.00
20455;BME280;10386;54.314;10.022;2024-01-27T10:34:00;103542.78;;;7.00;100.00
20455;BME280;10386;54.314;10.022;2024-01-27T10:36:43;103548.09;;;7.05;100.00
20455;BME280;10386;54.314;10.022;2024-01-27T10:39:22;103542.81;;;6.97;100.00
20455;BME280;10386;54.314;10.022;2024-01-27T10:41:50;103542.91;;;6.91;100.00
20455;BME280;10386;54.314;10.022;2024-01-27T10:44:18;103538.31;;;6.98;100.00
20455;BME280;10386;54.314;10.022;2024-01-27T10:46:47;103541.00;;;6.99;100.00
20455;BME280;10386;54.314;10.022;2024-01-27T10:49:17;103542.69;;;7.05;100.00
20455;BME280;10386;54.314;10.022;2024-01-27T10:51:48;103540.78;;;7.13;100.00
20455;BME280;10386;54.314;10.022;2024-01-27T10:54:24;103552.47;;;7.16;100.00
20455;BME280;10386;54.314;10.022;2024-01-27T10:56:56;103555.81;;;7.33;100.00
20455;BME280;10386;54.314;10.022;2024-01-27T10:59:26;103557.63;;;7.33;100.00
20455;BME280;10386;54.314;10.022;2024-01-27T11:01:54;103557.81;;;7.18;100.00
20455;BME280;10386;54.314;10.022;2024-01-27T11:04:21;103557.81;;;7.18;100.00
20455;BME280;10386;54.314;10.022;2024-01-27T11:06:49;103559.69;;;7.13;100.00
20455;BME280;10386;54.314;10.022;2024-01-27T11:09:18;103547.19;;;7.06;100.00
20455;BME280;10386;54.314;10.022;2024-01-27T11:11:46;103550.69;;;7.14;100.00
20455;BME280;10386;54.314;10.022;2024-01-27T11:14:13;103552.50;;;7.13;100.00
20455;BME280;10386;54.314;10.022;2024-01-27T11:16:40;103563.19;;;7.22;100.00
20455;BME280;10386;54.314;10.022;2024-01-27T11:19:13;103574.91;;;7.21;100.00
20455;BME280;10386;54.314;10.022;2024-01-27T11:21:40;103574.91;;;7.20;100.00
20455;BME280;10386;54.314;10.022;2024-01-27T11:24:14;103578.59;;;7.14;100.00
20455;BME280;10386;54.314;10.022;2024-01-27T11:26:42;103584.91;;;7.13;100.00
20455;BME280;10386;54.314;10.022;2024-01-27T11:29:09;103589.31;;;7.19;100.00
20455;BME280;10386;54.314;10.022;2024-01-27T11:31:45;103592.94;;;7.18;100.00
20455;BME280;10386;54.314;10.022;2024-01-27T11:34:13;103587.63;;;7.12;100.00
20455;BME280;10386;54.314;10.022;2024-01-27T11:36:43;103595.72;;;7.12;100.00
20455;BME280;10386;54.314;10.022;2024-01-27T11:39:27;103601.97;;;7.18;100.00
20455;BME280;10386;54.314;10.022;2024-01-27T11:42:05;103602.13;;;7.06;100.00
20455;BME280;10386;54.314;10.022;2024-01-27T11:44:38;103599.25;;;7.17;100.00
20455;BME280;10386;54.314;10.022;2024-01-27T11:47:22;103607.25;;;7.27;100.00
20455;BME280;10386;54.314;10.022;2024-01-27T11:49:53;103610.97;;;7.17;100.00
20455;BME280;10386;54.314;10.022;2024-01-27T11:52:21;103615.47;;;7.18;100.00
20455;BME280;10386;54.314;10.022;2024-01-27T11:54:59;103622.66;;;7.19;100.00
20455;BME280;10386;54.314;10.022;2024-01-27T11:57:26;103613.69;;;7.17;100.00
20455;BME280;10386;54.314;10.022;2024-01-27T11:59:56;103614.44;;;7.28;100.00
20455;BME280;10386;54.314;10.022;2024-01-27T12:02:23;103615.44;;;7.20;100.00
20455;BME280;10386;54.314;10.022;2024-01-27T12:04:51;103611.81;;;7.24;100.00
20455;BME280;10386;54.314;10.022;2024-01-27T12:07:19;103615.34;;;7.27;100.00
20455;BME280;10386;54.314;10.022;2024-01-27T12:09:50;103623.50;;;7.24;100.00
20455;BME280;10386;54.314;10.022;2024-01-27T12:12:17;103618.13;;;7.21;100.00
20455;BME280;10386;54.314;10.022;2024-01-27T12:14:45;103502.81;;;7.22;100.00
20455;BME280;10386;54.314;10.022;2024-01-27T12:17:12;103501.03;;;7.24;100.00
20455;BME280;10386;54.314;10.022;2024-01-27T12:19:48;103503.72;;;7.24;100.00
20455;BME280;10386;54.314;10.022;2024-01-27T12:22:33;103518.06;;;7.29;100.00
20455;BME280;10386;54.314;10.022;2024-01-27T12:25:11;103526.03;;;7.38;100.00
20455;BME280;10386;54.314;10.022;2024-01-27T12:27:40;103525.00;;;7.45;100.00
20455;BME280;10386;54.314;10.022;2024-01-27T12:30:08;103524.91;;;7.49;100.00
20455;BME280;10386;54.314;10.022;2024-01-27T12:32:35;103523.13;;;7.50;100.00
20455;BME280;10386;54.314;10.022;2024-01-27T12:35:06;103528.63;;;7.42;100.00
20455;BME280;10386;54.314;10.022;2024-01-27T12:37:34;103530.47;;;7.40;100.00
20455;BME280;10386;54.314;10.022;2024-01-27T12:40:01;103522.41;;;7.39;100.00
20455;BME280;10386;54.314;10.022;2024-01-27T12:42:28;103522.50;;;7.31;100.00
20455;BME280;10386;54.314;10.022;2024-01-27T12:44:56;103527.88;;;7.34;100.00